createdAt,value
2023-05-13T00:00:41.254Z,82.33
2023-05-13T00:03:12.866Z,82.02
2023-05-13T00:05:41.473Z,82.87
2023-05-13T00:08:09.932Z,82.79
2023-05-13T00:10:38.301Z,82.23
2023-05-13T00:13:06.749Z,81.92
2023-05-13T00:15:35.101Z,82.29
2023-05-13T00:18:03.569Z,82.05
2023-05-13T00:20:32.004Z,82.00
2023-05-13T00:23:00.554Z,81.85
2023-05-13T00:25:29.922Z,82.86
2023-05-13T00:27:58.326Z,83.13
2023-05-13T00:30:26.885Z,83.57
2023-05-13T00:32:55.523Z,82.85
2023-05-13T00:35:23.873Z,82.61
2023-05-13T00:37:52.253Z,82.38
2023-05-13T00:40:23.635Z,82.55
2023-05-13T00:42:52.528Z,82.77
2023-05-13T00:45:21.533Z,83.25
2023-05-13T00:47:50.083Z,83.56
2023-05-13T00:50:18.883Z,83.41
2023-05-13T00:52:51.184Z,83.70
2023-05-13T00:55:19.602Z,83.74
2023-05-13T00:57:48.291Z,83.61
2023-05-13T01:00:16.898Z,83.42
2023-05-13T01:03:03.135Z,83.72
2023-05-13T01:05:49.573Z,83.48
2023-05-13T01:08:43.178Z,84.23
2023-05-13T01:11:20.608Z,84.07
2023-05-13T01:13:54.738Z,84.70
2023-05-13T01:16:33.163Z,85.11
2023-05-13T01:19:11.881Z,84.86
2023-05-13T01:21:40.475Z,84.89
2023-05-13T01:24:08.871Z,85.02
2023-05-13T01:26:37.420Z,85.42
2023-05-13T01:29:05.943Z,85.15
2023-05-13T01:31:34.970Z,84.93
2023-05-13T01:34:06.018Z,85.00
2023-05-13T01:36:34.552Z,85.78
2023-05-13T01:39:03.576Z,85.82
2023-05-13T01:41:32.288Z,85.41
2023-05-13T01:44:00.893Z,85.86
2023-05-13T01:46:29.759Z,86.27
2023-05-13T01:48:58.348Z,86.38
2023-05-13T01:51:26.801Z,86.88
2023-05-13T01:53:55.170Z,87.53
2023-05-13T01:56:24.548Z,87.07
2023-05-13T01:58:52.919Z,86.43
2023-05-13T02:01:22.615Z,86.24
2023-05-13T02:03:51.506Z,86.28
2023-05-13T02:06:20.440Z,86.02
2023-05-13T02:08:49.078Z,85.44
2023-05-13T02:11:17.465Z,86.10
2023-05-13T02:13:46.120Z,85.95
2023-05-13T02:16:18.486Z,86.32
2023-05-13T02:18:46.950Z,86.60
2023-05-13T02:21:15.473Z,86.52
2023-05-13T02:23:43.826Z,87.04
2023-05-13T02:26:12.133Z,86.91
2023-05-13T02:28:40.541Z,86.93
2023-05-13T02:31:08.909Z,86.89
2023-05-13T02:33:37.188Z,86.79
2023-05-13T02:36:05.637Z,86.81
2023-05-13T02:38:34.227Z,86.77
2023-05-13T02:41:02.650Z,86.76
2023-05-13T02:43:31.342Z,87.26
2023-05-13T02:46:03.996Z,87.39
2023-05-13T02:48:32.660Z,87.77
2023-05-13T02:51:02.400Z,87.57
2023-05-13T02:53:30.970Z,87.21
2023-05-13T02:56:02.553Z,87.06
2023-05-13T02:58:30.875Z,87.25
2023-05-13T03:01:00.050Z,87.35
2023-05-13T03:03:29.232Z,87.35
2023-05-13T03:05:57.868Z,87.30
2023-05-13T03:08:26.197Z,86.85
2023-05-13T03:10:55.668Z,87.34
2023-05-13T03:13:24.070Z,87.25
2023-05-13T03:15:52.681Z,87.41
2023-05-13T03:18:21.060Z,88.15
2023-05-13T03:20:49.759Z,87.82
2023-05-13T03:23:18.112Z,87.82
2023-05-13T03:25:47.704Z,87.95
2023-05-13T03:28:16.101Z,87.95
2023-05-13T03:30:45.364Z,88.15
2023-05-13T03:33:19.486Z,88.37
2023-05-13T03:35:49.910Z,88.52
2023-05-13T03:38:20.333Z,87.39
2023-05-13T03:40:49.946Z,87.21
2023-05-13T03:43:18.595Z,86.77
2023-05-13T03:45:51.681Z,86.30
2023-05-13T03:48:21.028Z,86.13
2023-05-13T03:50:49.498Z,85.99
2023-05-13T03:53:18.793Z,85.67
2023-05-13T03:55:47.268Z,85.16
2023-05-13T03:58:16.644Z,84.61
2023-05-13T04:00:48.233Z,84.83
2023-05-13T04:03:17.655Z,85.06
2023-05-13T04:05:46.905Z,84.74
2023-05-13T04:08:16.015Z,84.33
2023-05-13T04:10:45.072Z,84.37
2023-05-13T04:13:13.360Z,84.23
2023-05-13T04:15:41.798Z,84.21
2023-05-13T04:18:10.569Z,84.04
2023-05-13T04:20:42.086Z,83.87
2023-05-13T04:23:10.560Z,83.76
2023-05-13T04:25:42.075Z,83.75
2023-05-13T04:28:10.545Z,83.61
2023-05-13T04:30:44.752Z,83.36
2023-05-13T04:33:14.316Z,83.93
2023-05-13T04:35:45.982Z,83.79
2023-05-13T04:38:14.845Z,83.53
2023-05-13T04:40:44.637Z,83.11
2023-05-13T04:43:16.361Z,83.30
2023-05-13T04:45:51.787Z,83.11
2023-05-13T04:48:20.601Z,83.08
2023-05-13T04:50:51.178Z,82.66
2023-05-13T04:53:20.158Z,82.48
2023-05-13T04:55:50.235Z,82.14
2023-05-13T04:58:18.619Z,81.91
2023-05-13T05:00:47.144Z,81.55
2023-05-13T05:03:16.478Z,81.27
2023-05-13T05:05:44.935Z,81.26
2023-05-13T05:08:15.022Z,80.67
2023-05-13T05:10:43.832Z,79.86
2023-05-13T05:13:13.893Z,79.47
2023-05-13T05:15:42.929Z,78.82
2023-05-13T05:18:11.898Z,78.62
2023-05-13T05:20:41.401Z,78.29
2023-05-13T05:23:15.898Z,77.48
2023-05-13T05:25:44.600Z,77.03
2023-05-13T05:28:13.641Z,76.90
2023-05-13T05:30:44.203Z,75.94
2023-05-13T05:33:23.413Z,75.96
2023-05-13T05:35:52.386Z,75.23
2023-05-13T05:38:26.587Z,75.15
2023-05-13T05:40:58.331Z,74.65
2023-05-13T05:43:27.077Z,74.91
2023-05-13T05:45:55.488Z,74.99
2023-05-13T05:48:24.130Z,74.69
2023-05-13T05:50:52.635Z,73.72
2023-05-13T05:53:27.418Z,74.18
2023-05-13T05:55:56.344Z,73.61
2023-05-13T05:58:27.166Z,74.15
2023-05-13T06:00:57.178Z,74.18
2023-05-13T06:03:25.936Z,73.41
2023-05-13T06:08:13.269Z,73.31
2023-05-13T06:10:41.913Z,73.27
2023-05-13T06:13:10.469Z,73.32
2023-05-13T06:15:39.013Z,73.51
2023-05-13T06:18:07.530Z,72.81
2023-05-13T06:20:36.581Z,73.56
2023-05-13T06:23:05.015Z,73.05
2023-05-13T06:25:33.488Z,72.75
2023-05-13T06:28:03.176Z,73.23
2023-05-13T06:30:31.969Z,72.48
2023-05-13T06:33:01.947Z,72.10
2023-05-13T06:35:31.902Z,72.43
2023-05-13T06:38:01.958Z,71.93
2023-05-13T06:40:30.966Z,71.45
2023-05-13T06:42:59.338Z,71.20
2023-05-13T06:45:32.091Z,71.72
2023-05-13T06:48:00.918Z,71.75
2023-05-13T06:50:29.337Z,71.54
2023-05-13T06:52:58.901Z,71.32
2023-05-13T06:55:27.349Z,71.90
2023-05-13T06:57:55.728Z,72.45
2023-05-13T07:00:24.571Z,71.91
2023-05-13T07:02:53.094Z,72.55
2023-05-13T07:05:21.529Z,73.05
2023-05-13T07:07:53.926Z,73.37
2023-05-13T07:10:22.426Z,72.32
2023-05-13T07:12:51.244Z,71.42
2023-05-13T07:15:19.943Z,71.45
2023-05-13T07:17:48.672Z,72.30
2023-05-13T07:20:19.800Z,73.00
2023-05-13T07:22:50.089Z,72.84
2023-05-13T07:25:19.250Z,72.65
2023-05-13T07:27:48.189Z,72.59
2023-05-13T07:30:16.972Z,72.48
2023-05-13T07:32:45.451Z,72.36
2023-05-13T07:35:13.941Z,72.09
2023-05-13T07:37:42.637Z,71.66
2023-05-13T07:40:11.417Z,71.47
2023-05-13T07:42:40.584Z,73.24
2023-05-13T07:45:09.637Z,72.12
2023-05-13T07:47:38.038Z,72.40
2023-05-13T07:50:07.060Z,72.50
2023-05-13T07:52:35.654Z,71.58
2023-05-13T07:55:04.329Z,72.42
2023-05-13T07:57:32.710Z,72.18
2023-05-13T08:00:00.977Z,70.57
2023-05-13T08:02:34.927Z,70.03
2023-05-13T08:05:03.571Z,70.40
2023-05-13T08:07:32.087Z,68.94
2023-05-13T08:10:00.488Z,68.46
2023-05-13T08:12:28.856Z,67.66
2023-05-13T08:14:57.309Z,66.40
2023-05-13T08:17:25.700Z,67.36
2023-05-13T08:19:54.247Z,67.39
2023-05-13T08:22:22.794Z,66.88
2023-05-13T08:24:51.287Z,66.29
2023-05-13T08:27:19.850Z,66.02
2023-05-13T08:29:48.270Z,65.74
2023-05-13T08:32:16.668Z,66.12
2023-05-13T08:34:45.020Z,65.81
2023-05-13T08:37:13.368Z,66.18
2023-05-13T08:39:41.896Z,65.41
2023-05-13T08:42:11.732Z,65.39
2023-05-13T08:44:44.016Z,64.91
2023-05-13T08:47:23.985Z,64.59
2023-05-13T08:49:52.923Z,64.71
2023-05-13T08:52:23.012Z,65.27
2023-05-13T08:54:51.481Z,64.07
2023-05-13T08:57:19.924Z,64.41
2023-05-13T08:59:48.286Z,63.99
2023-05-13T09:02:17.024Z,64.15
2023-05-13T09:04:50.675Z,63.83
2023-05-13T09:07:19.142Z,63.07
2023-05-13T09:09:48.027Z,62.90
2023-05-13T09:12:49.582Z,61.71
2023-05-13T09:15:23.364Z,61.91
2023-05-13T09:17:58.733Z,62.30
2023-05-13T09:20:27.649Z,61.19
2023-05-13T09:23:04.115Z,61.38
2023-05-13T09:25:33.109Z,60.81
2023-05-13T09:28:03.559Z,60.19
2023-05-13T09:30:36.567Z,60.18
2023-05-13T09:33:13.863Z,60.60
2023-05-13T09:35:45.014Z,61.04
2023-05-13T09:38:14.897Z,60.92
2023-05-13T09:40:56.599Z,61.06
2023-05-13T09:43:32.423Z,59.60
2023-05-13T09:46:02.710Z,60.38
2023-05-13T09:48:33.789Z,60.80
2023-05-13T09:51:02.358Z,60.41
2023-05-13T09:53:31.863Z,59.65
2023-05-13T09:56:01.925Z,59.34
2023-05-13T09:58:31.316Z,58.72
2023-05-13T10:01:00.797Z,59.08
2023-05-13T10:03:30.151Z,58.84
2023-05-13T10:06:03.102Z,58.85
2023-05-13T10:08:32.034Z,58.40
2023-05-13T10:11:00.879Z,58.36
2023-05-13T10:13:31.908Z,57.98
2023-05-13T10:16:04.153Z,58.79
2023-05-13T10:18:33.037Z,59.21
2023-05-13T10:21:04.854Z,59.72
2023-05-13T10:23:34.407Z,58.31
2023-05-13T10:26:03.635Z,57.93
2023-05-13T10:28:33.028Z,56.18
2023-05-13T10:31:01.411Z,56.20
2023-05-13T10:33:31.300Z,56.13
2023-05-13T10:36:08.592Z,56.17
2023-05-13T10:38:45.069Z,56.53
2023-05-13T10:41:52.129Z,56.20
2023-05-13T10:44:20.864Z,56.28
2023-05-13T10:46:49.489Z,56.14
2023-05-13T10:49:18.015Z,56.63
2023-05-13T10:51:49.495Z,56.37
2023-05-13T10:54:23.590Z,55.31
2023-05-13T10:56:59.489Z,55.13
2023-05-13T10:59:30.799Z,56.01
2023-05-13T11:02:01.857Z,55.75
2023-05-13T11:04:31.396Z,54.63
2023-05-13T11:07:16.861Z,54.63
2023-05-13T11:09:51.513Z,54.15
2023-05-13T11:12:19.846Z,54.49
2023-05-13T11:14:48.913Z,54.14
2023-05-13T11:17:20.985Z,54.97
2023-05-13T11:19:51.879Z,55.25
2023-05-13T11:22:24.225Z,54.30
2023-05-13T11:25:10.644Z,53.40
2023-05-13T11:27:41.544Z,53.18
2023-05-13T11:30:28.160Z,53.78
2023-05-13T11:33:02.017Z,53.26
2023-05-13T11:35:33.361Z,53.73
2023-05-13T11:38:03.717Z,54.31
2023-05-13T11:40:34.428Z,53.59
2023-05-13T11:43:05.334Z,52.84
2023-05-13T11:45:39.334Z,53.37
2023-05-13T11:48:22.445Z,53.32
2023-05-13T11:50:52.190Z,53.09
2023-05-13T11:53:22.748Z,52.48
2023-05-13T11:55:51.895Z,52.73
2023-05-13T11:58:21.600Z,52.79
2023-05-13T12:00:49.952Z,52.50
2023-05-13T12:03:18.310Z,52.42
2023-05-13T12:05:46.875Z,52.08
2023-05-13T12:08:15.334Z,52.40
2023-05-13T12:10:45.053Z,51.42
2023-05-13T12:13:13.828Z,50.17
2023-05-13T12:15:42.713Z,50.40
2023-05-13T12:18:11.475Z,50.78
2023-05-13T12:20:39.888Z,49.57
2023-05-13T12:23:12.031Z,49.30
2023-05-13T12:25:51.358Z,48.95
2023-05-13T12:28:27.168Z,47.84
2023-05-13T12:31:01.259Z,48.28
2023-05-13T12:33:32.708Z,47.56
2023-05-13T12:36:20.332Z,48.16
2023-05-13T12:38:56.803Z,48.52
2023-05-13T12:41:30.222Z,47.28
2023-05-13T12:44:10.206Z,47.27
2023-05-13T12:46:39.973Z,46.71
2023-05-13T12:49:09.781Z,47.33
2023-05-13T12:51:38.301Z,46.55
2023-05-13T12:54:06.831Z,46.62
2023-05-13T12:56:35.158Z,47.29
2023-05-13T12:59:03.552Z,45.95
2023-05-13T13:01:32.761Z,45.71
2023-05-13T13:04:01.479Z,45.35
2023-05-13T13:06:30.021Z,45.04
2023-05-13T13:08:58.430Z,44.13
2023-05-13T13:11:27.042Z,43.66
2023-05-13T13:13:55.435Z,44.30
2023-05-13T13:16:23.901Z,43.47
2023-05-13T13:18:54.290Z,43.33
2023-05-13T13:21:24.125Z,43.86
2023-05-13T13:23:52.597Z,44.84
2023-05-13T13:26:25.531Z,44.88
2023-05-13T13:28:53.940Z,44.07
2023-05-13T13:31:22.570Z,44.18
2023-05-13T13:33:50.960Z,43.84
2023-05-13T13:36:19.607Z,43.48
2023-05-13T13:38:48.034Z,42.91
2023-05-13T13:41:16.351Z,43.25
2023-05-13T13:43:44.942Z,41.23
2023-05-13T13:46:13.262Z,40.54
2023-05-13T13:48:41.741Z,39.70
2023-05-13T13:51:10.150Z,41.19
2023-05-13T13:53:38.452Z,41.29
2023-05-13T13:56:07.340Z,39.96
2023-05-13T13:58:35.834Z,40.22
2023-05-13T14:01:04.274Z,40.21
2023-05-13T14:03:32.752Z,38.86
2023-05-13T14:06:01.205Z,38.49
2023-05-13T14:08:29.536Z,38.30
2023-05-13T14:10:58.269Z,38.35
2023-05-13T14:13:26.710Z,38.83
2023-05-13T14:15:55.125Z,38.81
2023-05-13T14:18:23.676Z,39.43
2023-05-13T14:20:52.094Z,40.06
2023-05-13T14:23:20.412Z,40.53
2023-05-13T14:25:48.821Z,42.19
2023-05-13T14:28:17.855Z,42.14
2023-05-13T14:30:46.277Z,42.38
2023-05-13T14:33:14.566Z,42.70
2023-05-13T14:35:42.957Z,42.78
2023-05-13T14:38:11.310Z,42.23
2023-05-13T14:40:39.688Z,42.78
2023-05-13T14:43:08.152Z,43.38
2023-05-13T14:45:37.018Z,42.80
2023-05-13T14:48:05.606Z,43.18
2023-05-13T14:50:33.970Z,43.27
2023-05-13T14:53:02.396Z,43.21
2023-05-13T14:55:30.779Z,43.60
2023-05-13T14:57:59.321Z,43.88
2023-05-13T15:00:27.894Z,43.52
2023-05-13T15:02:56.366Z,43.11
2023-05-13T15:05:26.825Z,43.69
2023-05-13T15:07:55.430Z,43.89
2023-05-13T15:10:24.055Z,44.37
2023-05-13T15:12:52.615Z,44.79
2023-05-13T15:15:21.022Z,45.01
2023-05-13T15:17:49.462Z,44.35
2023-05-13T15:20:17.843Z,45.44
2023-05-13T15:22:46.357Z,45.44
2023-05-13T15:25:14.758Z,45.63
2023-05-13T15:27:44.710Z,45.47
2023-05-13T15:30:13.508Z,45.37
2023-05-13T15:32:41.967Z,45.95
2023-05-13T15:35:10.440Z,45.98
2023-05-13T15:37:42.810Z,46.64
2023-05-13T15:40:11.847Z,47.53
2023-05-13T15:42:40.275Z,47.82
2023-05-13T15:45:08.892Z,47.09
2023-05-13T15:47:37.685Z,47.84
2023-05-13T15:50:06.974Z,47.34
2023-05-13T15:52:35.748Z,48.01
2023-05-13T15:55:06.204Z,48.09
2023-05-13T15:57:34.745Z,47.58
2023-05-13T16:00:03.557Z,47.47
2023-05-13T16:02:39.248Z,48.14
2023-05-13T16:05:07.935Z,47.87
2023-05-13T16:07:36.248Z,47.67
2023-05-13T16:10:05.232Z,47.82
2023-05-13T16:12:34.858Z,47.82
2023-05-13T16:15:04.428Z,47.96
2023-05-13T16:17:33.328Z,48.11
2023-05-13T16:20:02.062Z,48.64
2023-05-13T16:22:33.863Z,49.36
2023-05-13T16:25:08.429Z,49.31
2023-05-13T16:27:38.957Z,49.15
2023-05-13T16:30:08.022Z,49.75
2023-05-13T16:32:36.603Z,49.46
2023-05-13T16:35:05.976Z,49.10
2023-05-13T16:37:35.668Z,48.91
2023-05-13T16:40:05.138Z,49.43
2023-05-13T16:42:33.518Z,49.36
2023-05-13T16:45:01.896Z,49.12
2023-05-13T16:47:30.264Z,50.46
2023-05-13T16:49:58.889Z,51.55
2023-05-13T16:52:27.379Z,51.28
2023-05-13T16:54:58.472Z,51.06
2023-05-13T16:57:27.549Z,51.21
2023-05-13T16:59:55.961Z,51.75
2023-05-13T17:02:24.547Z,51.50
2023-05-13T17:04:53.100Z,52.24
2023-05-13T17:07:21.481Z,51.27
2023-05-13T17:09:51.409Z,51.82
2023-05-13T17:12:19.739Z,52.50
2023-05-13T17:14:48.138Z,52.79
2023-05-13T17:17:16.628Z,52.67
2023-05-13T17:19:45.023Z,52.72
2023-05-13T17:22:13.420Z,52.68
2023-05-13T17:24:41.819Z,52.44
2023-05-13T17:27:10.297Z,51.96
2023-05-13T17:29:38.707Z,52.70
2023-05-13T17:32:07.463Z,52.95
2023-05-13T17:34:35.927Z,52.83
2023-05-13T17:37:04.384Z,52.99
2023-05-13T17:39:32.701Z,53.11
2023-05-13T17:42:01.090Z,54.07
2023-05-13T17:44:29.649Z,53.68
2023-05-13T17:46:58.039Z,53.76
2023-05-13T17:49:26.435Z,53.15
2023-05-13T17:51:54.769Z,53.69
2023-05-13T17:54:23.191Z,54.49
2023-05-13T17:56:51.615Z,55.04
2023-05-13T17:59:19.960Z,55.97
2023-05-13T18:01:48.353Z,57.19
2023-05-13T18:04:16.924Z,57.30
2023-05-13T18:06:45.332Z,57.56
2023-05-13T18:09:13.788Z,57.93
2023-05-13T18:11:42.195Z,58.00
2023-05-13T18:14:10.593Z,58.63
2023-05-13T18:16:39.018Z,59.07
2023-05-13T18:19:07.502Z,59.89
2023-05-13T18:21:35.982Z,61.45
2023-05-13T18:24:04.650Z,62.61
2023-05-13T18:26:33.090Z,62.52
2023-05-13T18:29:02.517Z,62.32
2023-05-13T18:31:34.986Z,63.33
2023-05-13T18:34:03.963Z,65.22
2023-05-13T18:36:32.998Z,64.68
2023-05-13T18:39:01.426Z,64.75
2023-05-13T18:41:29.861Z,64.44
2023-05-13T18:43:58.269Z,64.35
2023-05-13T18:46:26.758Z,65.66
2023-05-13T18:48:55.212Z,65.53
2023-05-13T18:51:23.625Z,64.95
2023-05-13T18:53:52.118Z,64.94
2023-05-13T18:56:21.190Z,64.71
2023-05-13T18:58:49.806Z,64.82
2023-05-13T19:01:18.436Z,65.01
2023-05-13T19:03:47.219Z,66.23
2023-05-13T19:06:16.237Z,65.92
2023-05-13T19:08:44.741Z,65.74
2023-05-13T19:11:13.875Z,66.07
2023-05-13T19:13:47.298Z,66.26
2023-05-13T19:16:16.663Z,66.19
2023-05-13T19:18:45.206Z,66.08
2023-05-13T19:21:13.647Z,65.98
2023-05-13T19:23:42.084Z,66.50
2023-05-13T19:26:10.591Z,67.19
2023-05-13T19:28:39.695Z,67.43
2023-05-13T19:31:08.103Z,68.54
2023-05-13T19:33:37.275Z,68.59
2023-05-13T19:36:06.805Z,69.60
2023-05-13T19:38:35.722Z,69.60
2023-05-13T19:41:04.143Z,69.71
2023-05-13T19:43:32.538Z,69.66
2023-05-13T19:46:01.067Z,69.47
2023-05-13T19:48:30.184Z,69.66
2023-05-13T19:50:58.698Z,69.48
2023-05-13T19:53:27.132Z,69.32
2023-05-13T19:55:56.080Z,69.43
2023-05-13T19:58:24.531Z,69.80
2023-05-13T20:00:53.051Z,69.88
2023-05-13T20:03:21.592Z,69.73
2023-05-13T20:05:51.530Z,69.84
2023-05-13T20:08:21.128Z,69.41
2023-05-13T20:10:49.528Z,69.78
2023-05-13T20:13:17.960Z,69.83
2023-05-13T20:15:46.690Z,70.17
2023-05-13T20:18:15.273Z,70.81
2023-05-13T20:20:45.239Z,70.93
2023-05-13T20:23:14.624Z,72.27
2023-05-13T20:25:43.453Z,72.25
2023-05-13T20:28:11.907Z,72.43
2023-05-13T20:30:43.595Z,72.46
2023-05-13T20:33:13.669Z,72.13
2023-05-13T20:35:42.584Z,72.56
2023-05-13T20:38:11.148Z,72.88
2023-05-13T20:40:39.485Z,74.62
2023-05-13T20:43:08.040Z,74.76
2023-05-13T20:45:39.917Z,75.25
2023-05-13T20:48:09.508Z,75.33
2023-05-13T20:50:38.398Z,75.52
2023-05-13T20:53:08.360Z,75.95
2023-05-13T20:55:36.631Z,76.22
2023-05-13T20:58:05.003Z,76.13
2023-05-13T21:00:33.465Z,76.59
2023-05-13T21:03:01.952Z,77.09
2023-05-13T21:05:31.434Z,77.26
2023-05-13T21:07:59.989Z,77.05
2023-05-13T21:10:28.407Z,77.37
2023-05-13T21:12:56.815Z,77.29
2023-05-13T21:15:25.214Z,77.83
2023-05-13T21:17:54.587Z,78.04
2023-05-13T21:20:23.275Z,77.87
2023-05-13T21:22:51.907Z,77.60
2023-05-13T21:25:20.343Z,78.27
2023-05-13T21:27:49.618Z,78.41
2023-05-13T21:30:17.952Z,77.97
2023-05-13T21:32:46.353Z,78.29
2023-05-13T21:35:14.843Z,78.14
2023-05-13T21:37:44.641Z,77.76
2023-05-13T21:40:14.638Z,78.35
2023-05-13T21:42:42.977Z,78.11
2023-05-13T21:45:12.614Z,79.88
2023-05-13T21:47:41.204Z,79.27
2023-05-13T21:50:11.493Z,78.87
2023-05-13T21:52:39.953Z,79.94
2023-05-13T21:55:08.816Z,79.58
2023-05-13T21:57:37.117Z,79.22
2023-05-13T22:00:10.717Z,78.95
2023-05-13T22:02:45.466Z,79.38
2023-05-13T22:05:14.283Z,78.72
2023-05-13T22:07:42.967Z,79.65
2023-05-13T22:10:11.944Z,79.15
2023-05-13T22:12:40.293Z,78.54
2023-05-13T22:15:09.484Z,78.53
2023-05-13T22:17:37.899Z,78.00
2023-05-13T22:20:07.242Z,78.04
2023-05-13T22:22:35.606Z,78.16
2023-05-13T22:25:04.518Z,78.37
2023-05-13T22:27:32.957Z,78.06
2023-05-13T22:30:01.226Z,78.10
2023-05-13T22:32:29.675Z,78.95
2023-05-13T22:34:58.048Z,79.49
2023-05-13T22:37:26.502Z,79.92
2023-05-13T22:39:54.840Z,79.66
2023-05-13T22:42:23.365Z,79.42
2023-05-13T22:44:52.079Z,79.05
2023-05-13T22:47:20.387Z,78.89
2023-05-13T22:49:48.709Z,78.84
2023-05-13T22:52:17.046Z,79.65
2023-05-13T22:54:45.423Z,79.88
2023-05-13T22:57:13.689Z,79.69
2023-05-13T22:59:41.941Z,79.97
2023-05-13T23:02:10.370Z,79.53
2023-05-13T23:04:38.897Z,79.56
2023-05-13T23:07:08.179Z,79.82
2023-05-13T23:09:36.614Z,79.75
2023-05-13T23:12:05.327Z,80.48
2023-05-13T23:14:33.737Z,81.11
2023-05-13T23:17:02.108Z,80.97
2023-05-13T23:19:30.755Z,81.24
2023-05-13T23:21:59.110Z,82.54
2023-05-13T23:24:27.438Z,81.85
2023-05-13T23:26:56.364Z,82.07
2023-05-13T23:29:27.766Z,82.35
2023-05-13T23:31:56.239Z,81.59
2023-05-13T23:34:24.515Z,81.44
2023-05-13T23:36:52.806Z,81.46
2023-05-13T23:39:21.106Z,81.83
2023-05-13T23:41:49.443Z,82.67
2023-05-13T23:44:17.870Z,82.82
2023-05-13T23:46:46.156Z,82.07
2023-05-13T23:49:14.420Z,82.25
2023-05-13T23:51:42.814Z,82.96
2023-05-13T23:54:11.208Z,82.16
2023-05-13T23:56:39.510Z,81.74
2023-05-13T23:59:08.711Z,81.49
